Rockingham, North Carolina
Current Conditions -  °F | °C
As of 3:55 PM on Friday 31 Oct 2014 (Local Time) from KRCZ Reporting Station
Broken Clouds Broken Clouds  
Wind Chill: 62°   Ceiling: 7000
Heat Index: 62°   Visibility: 10mi
Dew Point: 42°   Wind: 3mph
Humidity: 49%   Direction: 360°N
Pressure: 29.81"   Gusts: NA
Location:  34.94°N, 79.77°W
Report Text: KRCZ 311955Z AUTO 36003KT 10SM SCT050 BKN070 17/06 A2981 RMK AO2 T01670058
Loading
Personal Weather Stations






























Interactive Weather Map
Tropical Storm Tracking
New forecast layout! Learn more

10-Day Weather Forecast

Advertisements
Track Severe Weather on mobile